Time;durP1;ratioP1;P1;durP2;ratioP2;P2;SDS_P1;SDS_P2;PMS_P1;PMS_P2;Temp;Humidity;BMP_temperature;BMP_pressure;BME280_temperature;BME280_humidity;BME280_pressure;Samples;Min_cycle;Max_cycle;Signal;HPM_P1;HPM_P2
2022/06/12 00:00:19;;;;;;;0.00;0.00;;;;;;;;;;5040113;28;92340;-71
2022/06/12 00:02:46;;;;;;;0.00;0.00;;;;;;;;;;5040183;28;92863;-72
2022/06/12 00:05:14;;;;;;;0.00;0.00;;;;;;;;;;5043403;28;94001;-72
2022/06/12 00:07:41;;;;;;;0.00;0.00;;;;;;;;;;5040110;28;92851;-72
2022/06/12 00:10:08;;;;;;;0.00;0.00;;;;;;;;;;5039837;28;93566;-72
2022/06/12 00:12:35;;;;;;;0.00;0.00;;;;;;;;;;5040019;28;92159;-72
2022/06/12 00:15:02;;;;;;;0.00;0.00;;;;;;;;;;5040524;28;93452;-72
2022/06/12 00:17:28;;;;;;;0.00;0.00;;;;;;;;;;5039859;28;93815;-72
2022/06/12 00:19:54;;;;;;;0.00;0.00;;;;;;;;;;5022416;28;92324;-73
2022/06/12 00:22:21;;;;;;;0.00;0.00;;;;;;;;;;5038099;28;94691;-72
2022/06/12 00:24:47;;;;;;;0.00;0.00;;;;;;;;;;5039854;28;92244;-72
2022/06/12 00:27:14;;;;;;;0.00;0.00;;;;;;;;;;5043000;28;92126;-72
2022/06/12 00:29:42;;;;;;;0.00;0.00;;;;;;;;;;5039428;28;93327;-72
2022/06/12 00:32:12;;;;;;;0.00;0.00;;;;;;;;;;5039678;28;92391;-72
2022/06/12 00:34:41;;;;;;;0.00;0.00;;;;;;;;;;5021650;28;92843;-72
2022/06/12 00:37:10;;;;;;;0.00;0.00;;;;;;;;;;5021826;28;93523;-72
2022/06/12 00:39:37;;;;;;;0.00;0.00;;;;;;;;;;5040200;28;91565;-72
2022/06/12 00:42:04;;;;;;;1.15;0.75;;;;;;;;;;5039737;28;92929;-72
2022/06/12 00:44:36;;;;;;;0.00;0.00;;;;;;;;;;5039256;28;93841;-71
2022/06/12 00:47:04;;;;;;;0.00;0.00;;;;;;;;;;5038130;28;94717;-72
2022/06/12 00:49:36;;;;;;;0.00;0.00;;;;;;;;;;5023944;28;96997;-72
2022/06/12 00:52:09;;;;;;;0.00;0.00;;;;;;;;;;5039622;28;92203;-72
2022/06/12 00:54:37;;;;;;;0.00;0.00;;;;;;;;;;5039705;28;93560;-72
2022/06/12 00:57:05;;;;;;;0.00;0.00;;;;;;;;;;5038192;27;93534;-72
2022/06/12 00:59:50;;;;;;;0.00;0.00;;;;;;;;;;5038693;28;92315;-71
2022/06/12 01:02:18;;;;;;;0.00;0.00;;;;;;;;;;5039234;28;93238;-71
2022/06/12 01:07:35;;;;;;;0.00;0.00;;;;;;;;;;5039266;28;92227;-71
2022/06/12 01:10:03;;;;;;;0.00;0.00;;;;;;;;;;5039541;28;92688;-71
2022/06/12 01:12:35;;;;;;;0.00;0.00;;;;;;;;;;5040451;28;95393;-71
2022/06/12 01:15:07;;;;;;;0.00;0.00;;;;;;;;;;5039331;28;95663;-71
2022/06/12 01:17:33;;;;;;;0.00;0.00;;;;;;;;;;5039199;28;93661;-72
2022/06/12 01:20:01;;;;;;;0.00;0.00;;;;;;;;;;5038718;28;92268;-72
2022/06/12 01:22:46;;;;;;;0.00;0.00;;;;;;;;;;5039038;28;93812;-72
2022/06/12 01:25:32;;;;;;;0.00;0.00;;;;;;;;;;5039082;28;93506;-71
2022/06/12 01:28:17;;;;;;;0.00;0.00;;;;;;;;;;5022145;28;92178;-72
2022/06/12 01:30:56;;;;;;;0.00;0.00;;;;;;;;;;5039585;28;93535;-72
2022/06/12 01:33:30;;;;;;;0.00;0.00;;;;;;;;;;5038376;28;93530;-72
2022/06/12 01:36:03;;;;;;;0.00;0.00;;;;;;;;;;5041743;28;92255;-72
2022/06/12 01:38:50;;;;;;;0.00;0.00;;;;;;;;;;5037176;28;95963;-71
2022/06/12 01:41:30;;;;;;;0.00;0.00;;;;;;;;;;5038684;28;92144;-72
2022/06/12 01:43:56;;;;;;;0.00;0.00;;;;;;;;;;5038636;28;93700;-72
2022/06/12 01:46:24;;;;;;;0.00;0.00;;;;;;;;;;5038271;28;93590;-72
2022/06/12 01:49:10;;;;;;;0.00;0.00;;;;;;;;;;5038705;28;92270;-72
2022/06/12 01:51:52;;;;;;;0.00;0.00;;;;;;;;;;5038719;28;93505;-71
2022/06/12 01:54:24;;;;;;;0.00;0.00;;;;;;;;;;5038446;28;93750;-71
2022/06/12 01:56:54;;;;;;;0.00;0.00;;;;;;;;;;5039230;28;91530;-71
2022/06/12 01:59:20;;;;;;;0.00;0.00;;;;;;;;;;5041045;28;92547;-71
2022/06/12 02:01:55;;;;;;;0.00;0.00;;;;;;;;;;5020395;28;92288;-71
2022/06/12 02:04:26;;;;;;;0.00;0.00;;;;;;;;;;5036608;28;94506;-72
2022/06/12 02:07:11;;;;;;;0.00;0.00;;;;;;;;;;5038183;27;92958;-72
2022/06/12 02:09:40;;;;;;;0.00;0.00;;;;;;;;;;5038485;28;92275;-71
2022/06/12 02:15:06;;;;;;;0.10;0.10;;;;;;;;;;5037728;28;93757;-71
2022/06/12 02:17:36;;;;;;;0.00;0.00;;;;;;;;;;5038359;28;92181;-71
2022/06/12 02:20:06;;;;;;;0.00;0.00;;;;;;;;;;5041161;28;92424;-71
2022/06/12 02:22:33;;;;;;;0.00;0.00;;;;;;;;;;5038593;28;91384;-71
2022/06/12 02:25:05;;;;;;;0.00;0.00;;;;;;;;;;5037824;28;93180;-71
2022/06/12 02:28:01;;;;;;;0.00;0.00;;;;;;;;;;5037535;28;93693;-71
2022/06/12 02:30:31;;;;;;;0.00;0.00;;;;;;;;;;5015037;28;94824;-71
2022/06/12 02:33:01;;;;;;;0.00;0.00;;;;;;;;;;5037910;28;95788;-71
2022/06/12 02:35:39;;;;;;;0.00;0.00;;;;;;;;;;5037610;28;93819;-71
2022/06/12 02:38:11;;;;;;;0.00;0.00;;;;;;;;;;5037657;28;92189;-71
2022/06/12 02:40:40;;;;;;;0.00;0.00;;;;;;;;;;5020441;28;93407;-71
2022/06/12 02:43:10;;;;;;;0.00;0.00;;;;;;;;;;5040701;28;93282;-71
2022/06/12 02:45:44;;;;;;;0.00;0.00;;;;;;;;;;5037808;28;93432;-72
2022/06/12 02:48:10;;;;;;;0.00;0.00;;;;;;;;;;5037455;28;92442;-71
2022/06/12 02:50:43;;;;;;;0.00;0.00;;;;;;;;;;5037695;28;92256;-71
2022/06/12 02:53:22;;;;;;;0.00;0.00;;;;;;;;;;5037612;28;93074;-71
2022/06/12 02:55:55;;;;;;;0.00;0.00;;;;;;;;;;5035922;28;96089;-71
2022/06/12 02:58:33;;;;;;;0.00;0.00;;;;;;;;;;5037092;28;92377;-71
2022/06/12 03:01:02;;;;;;;0.00;0.00;;;;;;;;;;5037552;28;93340;-71
2022/06/12 03:03:48;;;;;;;0.00;0.00;;;;;;;;;;5037249;28;93508;-72
2022/06/12 03:06:17;;;;;;;0.00;0.00;;;;;;;;;;5040538;28;92276;-72
2022/06/12 03:08:46;;;;;;;0.00;0.00;;;;;;;;;;5037244;28;93434;-71
2022/06/12 03:11:17;;;;;;;0.00;0.00;;;;;;;;;;5037305;28;92190;-71
2022/06/12 03:13:45;;;;;;;0.00;0.00;;;;;;;;;;5037759;28;93759;-71
2022/06/12 03:16:15;;;;;;;0.00;0.00;;;;;;;;;;5037134;28;93481;-70
2022/06/12 03:18:43;;;;;;;0.00;0.00;;;;;;;;;;5036793;27;92249;-71
2022/06/12 03:21:10;;;;;;;0.00;0.00;;;;;;;;;;5035191;28;94729;-71
2022/06/12 03:23:57;;;;;;;0.00;0.00;;;;;;;;;;5036518;28;93504;-71
2022/06/12 03:26:33;;;;;;;0.00;0.00;;;;;;;;;;5036953;28;92210;-72
2022/06/12 03:29:35;;;;;;;0.00;0.00;;;;;;;;;;5040043;28;93431;-71
2022/06/12 03:32:04;;;;;;;0.00;0.00;;;;;;;;;;4935440;28;92432;-71
2022/06/12 03:34:43;;;;;;;0.00;0.00;;;;;;;;;;5017973;28;93576;-71
2022/06/12 03:37:32;;;;;;;0.00;0.00;;;;;;;;;;5037080;28;93493;-71
2022/06/12 03:40:05;;;;;;;0.00;0.00;;;;;;;;;;5037699;28;92637;-71
2022/06/12 03:42:51;;;;;;;0.00;0.00;;;;;;;;;;5036547;28;92423;-71
2022/06/12 03:45:22;;;;;;;0.00;0.00;;;;;;;;;;5019643;28;93677;-71
2022/06/12 03:47:52;;;;;;;0.00;0.00;;;;;;;;;;5017738;28;94683;-71
2022/06/12 03:50:26;;;;;;;0.00;0.00;;;;;;;;;;5036731;28;95762;-70
2022/06/12 03:53:09;;;;;;;0.10;0.10;;;;;;;;;;5039304;28;93497;-72
2022/06/12 03:58:39;;;;;;;0.00;0.00;;;;;;;;;;5036245;28;93408;-71
2022/06/12 04:01:06;;;;;;;0.00;0.00;;;;;;;;;;5036703;28;92330;-71
2022/06/12 04:03:34;;;;;;;0.00;0.00;;;;;;;;;;5036380;28;93537;-72
2022/06/12 04:06:04;;;;;;;0.00;0.00;;;;;;;;;;5037168;28;92718;-72
2022/06/12 04:08:36;;;;;;;0.00;0.00;;;;;;;;;;5036746;28;92380;-72
2022/06/12 04:11:03;;;;;;;0.00;0.00;;;;;;;;;;5036660;28;93384;-73
2022/06/12 04:13:30;;;;;;;0.00;0.00;;;;;;;;;;5034628;28;96044;-72
2022/06/12 04:15:58;;;;;;;0.00;0.00;;;;;;;;;;5039108;28;92330;-72
2022/06/12 04:18:26;;;;;;;0.00;0.00;;;;;;;;;;5036215;28;93170;-71
2022/06/12 04:20:57;;;;;;;0.00;0.00;;;;;;;;;;5036717;28;92378;-71
2022/06/12 04:23:37;;;;;;;0.00;0.00;;;;;;;;;;5036507;28;93525;-73
2022/06/12 04:26:11;;;;;;;0.00;0.00;;;;;;;;;;5036005;28;93639;-72
2022/06/12 04:28:39;;;;;;;0.00;0.00;;;;;;;;;;5036076;28;92363;-72
2022/06/12 04:31:09;;;;;;;0.00;0.00;;;;;;;;;;5038441;27;93320;-73
2022/06/12 04:33:35;;;;;;;0.00;0.00;;;;;;;;;;5039760;28;93453;-73
2022/06/12 04:36:03;;;;;;;0.00;0.00;;;;;;;;;;5042909;28;92184;-73
2022/06/12 04:38:31;;;;;;;0.00;0.00;;;;;;;;;;5038059;28;96427;-73
2022/06/12 04:40:58;;;;;;;0.00;0.00;;;;;;;;;;5039516;28;92457;-73
2022/06/12 04:43:24;;;;;;;0.00;0.00;;;;;;;;;;5039699;28;93421;-73
2022/06/12 04:45:51;;;;;;;0.00;0.00;;;;;;;;;;5021200;28;96885;-73
2022/06/12 04:48:21;;;;;;;0.00;0.00;;;;;;;;;;5022089;28;92201;-73
2022/06/12 04:50:47;;;;;;;0.00;0.00;;;;;;;;;;5039632;28;93630;-72
2022/06/12 04:53:13;;;;;;;0.00;0.00;;;;;;;;;;5039376;28;93698;-73
2022/06/12 04:55:40;;;;;;;0.00;0.00;;;;;;;;;;5039874;28;92165;-73
2022/06/12 04:58:06;;;;;;;0.00;0.00;;;;;;;;;;5042136;28;92531;-71
2022/06/12 05:00:34;;;;;;;0.00;0.00;;;;;;;;;;5039404;28;92382;-71
2022/06/12 05:03:00;;;;;;;0.00;0.00;;;;;;;;;;5037705;28;94727;-72
2022/06/12 05:05:27;;;;;;;0.00;0.00;;;;;;;;;;5039259;28;93655;-72
2022/06/12 05:07:53;;;;;;;0.00;0.00;;;;;;;;;;5038827;28;92389;-72
2022/06/12 05:10:20;;;;;;;0.00;0.00;;;;;;;;;;5039131;28;92558;-72
2022/06/12 05:12:47;;;;;;;0.00;0.00;;;;;;;;;;5039201;28;93716;-72
2022/06/12 05:15:13;;;;;;;0.00;0.00;;;;;;;;;;5039284;28;92339;-72
2022/06/12 05:17:40;;;;;;;0.00;0.00;;;;;;;;;;5039054;28;93493;-73
2022/06/12 05:20:10;;;;;;;0.00;0.00;;;;;;;;;;5042479;28;92910;-72
2022/06/12 05:22:37;;;;;;;0.10;0.10;;;;;;;;;;5038571;28;92796;-72
2022/06/12 05:25:03;;;;;;;0.00;0.00;;;;;;;;;;5038768;28;93496;-72
2022/06/12 05:27:32;;;;;;;0.00;0.00;;;;;;;;;;5037413;28;94761;-73
2022/06/12 05:29:59;;;;;;;0.05;0.05;;;;;;;;;;5038890;28;95652;-73
2022/06/12 05:32:25;;;;;;;0.00;0.00;;;;;;;;;;5038935;28;93689;-73
2022/06/12 05:34:52;;;;;;;0.10;0.10;;;;;;;;;;5038911;28;92301;-72
2022/06/12 05:37:19;;;;;;;0.00;0.00;;;;;;;;;;5038252;28;93412;-72
2022/06/12 05:39:46;;;;;;;0.10;0.10;;;;;;;;;;5038664;28;93506;-72
2022/06/12 05:42:12;;;;;;;0.10;0.10;;;;;;;;;;5041260;27;92385;-72
2022/06/12 05:44:39;;;;;;;0.10;0.10;;;;;;;;;;5004478;28;95953;-73
2022/06/12 05:47:06;;;;;;;0.10;0.10;;;;;;;;;;5038805;28;92269;-73
2022/06/12 05:49:32;;;;;;;0.10;0.10;;;;;;;;;;5038455;28;93463;-73
2022/06/12 05:51:59;;;;;;;0.15;0.15;;;;;;;;;;5036419;28;95060;-73
2022/06/12 05:54:25;;;;;;;0.10;0.10;;;;;;;;;;5020598;28;92815;-73
2022/06/12 05:56:52;;;;;;;0.10;0.10;;;;;;;;;;5038722;28;92759;-73
2022/06/12 05:59:21;;;;;;;0.10;0.10;;;;;;;;;;5038097;28;93125;-73
2022/06/12 06:01:47;;;;;;;0.10;0.10;;;;;;;;;;5038399;28;92204;-72
2022/06/12 06:04:13;;;;;;;0.10;0.10;;;;;;;;;;5041107;28;93248;-73
2022/06/12 06:06:44;;;;;;;0.10;0.10;;;;;;;;;;5038146;28;92963;-73
2022/06/12 06:09:11;;;;;;;0.10;0.10;;;;;;;;;;5038850;28;93375;-73
2022/06/12 06:11:39;;;;;;;0.10;0.10;;;;;;;;;;5037981;28;94050;-73
2022/06/12 06:14:06;;;;;;;0.10;0.10;;;;;;;;;;5038262;28;92362;-72
2022/06/12 06:16:36;;;;;;;0.63;0.63;;;;;;;;;;5036661;28;94530;-74
2022/06/12 06:19:03;;;;;;;0.10;0.10;;;;;;;;;;5037793;28;93900;-73
2022/06/12 06:21:29;;;;;;;0.10;0.10;;;;;;;;;;5038069;28;92343;-73
2022/06/12 06:23:56;;;;;;;0.15;0.15;;;;;;;;;;5041161;28;92630;-73
2022/06/12 06:26:23;;;;;;;0.10;0.10;;;;;;;;;;5038113;28;92472;-74
2022/06/12 06:28:50;;;;;;;0.47;0.47;;;;;;;;;;5038166;28;93649;-73
2022/06/12 06:31:17;;;;;;;0.15;0.15;;;;;;;;;;5037823;28;93458;-74
2022/06/12 06:33:43;;;;;;;0.10;0.10;;;;;;;;;;5020669;28;91623;-73
2022/06/12 06:36:10;;;;;;;0.38;0.30;;;;;;;;;;5037856;28;92637;-73
2022/06/12 06:38:37;;;;;;;0.10;0.10;;;;;;;;;;5019517;28;94989;-74
2022/06/12 06:41:04;;;;;;;0.10;0.10;;;;;;;;;;5036137;28;94652;-72
2022/06/12 06:46:13;;;;;;;0.10;0.10;;;;;;;;;;5037674;28;95321;-73
2022/06/12 06:46:17;;;;;;;0.10;0.10;;;;;;;;;;5039851;28;93377;-73
2022/06/12 06:48:43;;;;;;;0.10;0.10;;;;;;;;;;5019497;28;94714;-73
2022/06/12 06:51:10;;;;;;;0.10;0.10;;;;;;;;;;5019556;28;95883;-73
2022/06/12 06:53:36;;;;;;;0.10;0.10;;;;;;;;;;5037199;27;92995;-73
2022/06/12 06:56:03;;;;;;;0.10;0.10;;;;;;;;;;5037005;28;93718;-73
2022/06/12 06:58:31;;;;;;;0.10;0.10;;;;;;;;;;5037106;28;92658;-73
2022/06/12 07:01:00;;;;;;;0.00;0.00;;;;;;;;;;5037368;28;92565;-73
2022/06/12 07:03:26;;;;;;;0.10;0.10;;;;;;;;;;5037398;28;93362;-73
2022/06/12 07:05:53;;;;;;;0.10;0.10;;;;;;;;;;5035676;28;95986;-73
2022/06/12 07:08:20;;;;;;;0.03;0.03;;;;;;;;;;5040674;28;92396;-72
2022/06/12 07:10:47;;;;;;;0.00;0.00;;;;;;;;;;5037229;28;93520;-71
2022/06/12 07:13:13;;;;;;;0.10;0.10;;;;;;;;;;5036713;28;92322;-74
2022/06/12 07:15:40;;;;;;;0.10;0.10;;;;;;;;;;5036987;28;93496;-74
2022/06/12 07:18:08;;;;;;;0.40;0.40;;;;;;;;;;5037348;28;93858;-75
2022/06/12 07:20:37;;;;;;;0.20;0.20;;;;;;;;;;5019203;28;92325;-75
2022/06/12 07:23:04;;;;;;;0.10;0.10;;;;;;;;;;5037066;28;93130;-75
2022/06/12 07:25:31;;;;;;;0.10;0.10;;;;;;;;;;5019365;28;93509;-74
2022/06/12 07:27:58;;;;;;;0.10;0.10;;;;;;;;;;5037276;28;92352;-74
2022/06/12 07:30:38;;;;;;;0.10;0.10;;;;;;;;;;5038331;28;94762;-73
2022/06/12 07:33:05;;;;;;;0.10;0.10;;;;;;;;;;5036511;28;92285;-73
2022/06/12 07:35:33;;;;;;;0.10;0.10;;;;;;;;;;5037016;28;93513;-71
2022/06/12 07:37:59;;;;;;;0.10;0.10;;;;;;;;;;5018969;28;93417;-72
2022/06/12 07:40:28;;;;;;;0.20;0.20;;;;;;;;;;5037058;28;92209;-73
2022/06/12 07:42:55;;;;;;;0.10;0.10;;;;;;;;;;5036711;28;93346;-73
2022/06/12 07:45:21;;;;;;;0.10;0.10;;;;;;;;;;5036452;28;92772;-73
2022/06/12 07:47:47;;;;;;;0.10;0.10;;;;;;;;;;5037049;28;91559;-72
2022/06/12 07:50:15;;;;;;;0.10;0.10;;;;;;;;;;5019348;28;92580;-71
2022/06/12 07:52:41;;;;;;;0.10;0.10;;;;;;;;;;5039866;28;93533;-74
2022/06/12 07:55:10;;;;;;;0.20;0.20;;;;;;;;;;5035249;28;94576;-74
2022/06/12 07:57:38;;;;;;;0.10;0.10;;;;;;;;;;5036443;28;94043;-74
2022/06/12 08:00:06;;;;;;;0.10;0.10;;;;;;;;;;5036051;28;92399;-73
2022/06/12 08:02:37;;;;;;;0.10;0.10;;;;;;;;;;5034318;28;93018;-73
2022/06/12 08:05:07;;;;;;;0.15;0.15;;;;;;;;;;5036479;27;93205;-73
2022/06/12 08:07:34;;;;;;;0.38;0.38;;;;;;;;;;5039983;28;92940;-74
2022/06/12 08:10:03;;;;;;;0.10;0.10;;;;;;;;;;5040172;28;93343;-74
2022/06/12 08:12:33;;;;;;;0.20;0.20;;;;;;;;;;5040341;28;93083;-73
2022/06/12 08:14:59;;;;;;;0.30;0.30;;;;;;;;;;5043133;28;92377;-74
2022/06/12 08:17:26;;;;;;;0.25;0.25;;;;;;;;;;5039860;28;93670;-74
2022/06/12 08:22:37;;;;;;;0.10;0.10;;;;;;;;;;5039967;28;95772;-74
2022/06/12 08:25:05;;;;;;;0.10;0.10;;;;;;;;;;5039537;28;93691;-75
2022/06/12 08:27:32;;;;;;;0.10;0.10;;;;;;;;;;5047528;27;92670;-73
2022/06/12 08:29:59;;;;;;;0.10;0.10;;;;;;;;;;5060114;27;92944;-74
2022/06/12 08:32:25;;;;;;;0.10;0.10;;;;;;;;;;5060132;27;92920;-74
2022/06/12 08:34:54;;;;;;;0.15;0.15;;;;;;;;;;5063321;27;92224;-74
2022/06/12 08:37:30;;;;;;;0.10;0.10;;;;;;;;;;5060297;27;92796;-74
2022/06/12 08:39:57;;;;;;;0.10;0.10;;;;;;;;;;5059704;27;93390;-74
2022/06/12 08:42:48;;;;;;;0.10;0.10;;;;;;;;;;5060222;27;93481;-75
2022/06/12 08:45:22;;;;;;;0.10;0.10;;;;;;;;;;5044619;27;95664;-73
2022/06/12 08:47:52;;;;;;;0.10;0.10;;;;;;;;;;5057255;27;93507;-74
2022/06/12 08:50:25;;;;;;;0.10;0.10;;;;;;;;;;5037757;27;93575;-74
2022/06/12 08:52:51;;;;;;;0.10;0.10;;;;;;;;;;5041339;27;93900;-74
2022/06/12 08:55:25;;;;;;;0.10;0.10;;;;;;;;;;5038687;27;92498;-74
2022/06/12 08:57:54;;;;;;;0.10;0.10;;;;;;;;;;5041301;27;92971;-74
2022/06/12 09:00:22;;;;;;;0.10;0.10;;;;;;;;;;5021015;27;92508;-75
2022/06/12 09:02:49;;;;;;;0.20;0.20;;;;;;;;;;5044421;27;93110;-74
2022/06/12 09:05:21;;;;;;;0.10;0.10;;;;;;;;;;5038505;27;93472;-74
2022/06/12 09:08:09;;;;;;;0.70;0.65;;;;;;;;;;5038784;27;92246;-74
2022/06/12 09:10:40;;;;;;;0.10;0.10;;;;;;;;;;5036623;27;95562;-74
2022/06/12 09:13:15;;;;;;;0.10;0.10;;;;;;;;;;5040685;27;93280;-75
2022/06/12 09:15:44;;;;;;;0.10;0.10;;;;;;;;;;5038509;27;93372;-74
2022/06/12 09:18:24;;;;;;;0.10;0.10;;;;;;;;;;5037300;27;93406;-71
2022/06/12 09:21:03;;;;;;;0.10;0.10;;;;;;;;;;5041406;27;93865;-71
2022/06/12 09:23:37;;;;;;;0.10;0.10;;;;;;;;;;5038095;27;93510;-74
2022/06/12 09:26:22;;;;;;;0.10;0.10;;;;;;;;;;5037838;27;94404;-75
2022/06/12 09:29:13;;;;;;;0.10;0.10;;;;;;;;;;5038628;27;91627;-75
2022/06/12 09:31:47;;;;;;;0.10;0.10;;;;;;;;;;5038381;27;92643;-74
2022/06/12 09:34:33;;;;;;;0.10;0.10;;;;;;;;;;5037787;27;93668;-74
2022/06/12 09:38:18;;;;;;;0.40;0.40;;;;;;;;;;5036577;27;95685;-78
2022/06/12 09:40:26;;;;;;;0.15;0.15;;;;;;;;;;5037949;27;95799;-78
2022/06/12 09:42:55;;;;;;;0.10;0.10;;;;;;;;;;5038365;27;93536;-76
2022/06/12 09:45:27;;;;;;;0.10;0.10;;;;;;;;;;5041378;27;93385;-77
2022/06/12 09:48:04;;;;;;;0.17;0.17;;;;;;;;;;5037655;27;94009;-75
2022/06/12 09:51:08;;;;;;;0.10;0.10;;;;;;;;;;5037989;27;92287;-75
2022/06/12 09:53:48;;;;;;;0.40;0.40;;;;;;;;;;4975599;28;93518;-76
2022/06/12 09:56:37;;;;;;;0.10;0.10;;;;;;;;;;4973024;28;93010;-79
2022/06/12 09:59:04;;;;;;;0.10;0.10;;;;;;;;;;5012088;27;92448;-77
2022/06/12 10:01:34;;;;;;;0.20;0.20;;;;;;;;;;5020726;28;96674;-75
2022/06/12 10:04:10;;;;;;;0.10;0.10;;;;;;;;;;5038146;27;95793;-75
2022/06/12 10:06:42;;;;;;;0.10;0.10;;;;;;;;;;5058866;27;92295;-74
2022/06/12 10:09:24;;;;;;;0.10;0.10;;;;;;;;;;5061701;27;93061;-76
2022/06/12 10:11:58;;;;;;;0.10;0.10;;;;;;;;;;5058579;27;92220;-75
2022/06/12 10:14:25;;;;;;;0.10;0.10;;;;;;;;;;5058576;27;93830;-76
2022/06/12 10:17:20;;;;;;;0.10;0.10;;;;;;;;;;5049627;27;92993;-73
2022/06/12 10:19:56;;;;;;;0.10;0.10;;;;;;;;;;5020466;27;92428;-80
2022/06/12 10:22:34;;;;;;;0.10;0.10;;;;;;;;;;5022686;28;92743;-74
2022/06/12 10:25:01;;;;;;;0.10;0.10;;;;;;;;;;5037124;27;93603;-75
2022/06/12 10:27:43;;;;;;;0.10;0.10;;;;;;;;;;5037475;27;92367;-74
2022/06/12 10:30:23;;;;;;;0.10;0.10;;;;;;;;;;5035640;27;94694;-75
2022/06/12 10:32:52;;;;;;;0.10;0.10;;;;;;;;;;5040012;27;93722;-75
2022/06/12 10:35:20;;;;;;;0.10;0.10;;;;;;;;;;5037216;27;93307;-74
2022/06/12 10:37:47;;;;;;;1.50;0.15;;;;;;;;;;5036787;27;93655;-74
2022/06/12 10:40:16;;;;;;;0.30;0.30;;;;;;;;;;5037135;27;93524;-75
2022/06/12 10:42:49;;;;;;;0.20;0.20;;;;;;;;;;5040024;27;93915;-74
2022/06/12 10:45:28;;;;;;;0.20;0.20;;;;;;;;;;5036979;27;93651;-77
2022/06/12 10:47:56;;;;;;;0.10;0.10;;;;;;;;;;5037679;27;91721;-76
2022/06/12 10:50:25;;;;;;;0.10;0.10;;;;;;;;;;5037234;27;92634;-75
2022/06/12 10:53:14;;;;;;;0.10;0.10;;;;;;;;;;5039795;27;93516;-75
2022/06/12 10:55:49;;;;;;;0.10;0.10;;;;;;;;;;5030086;27;94719;-74
2022/06/12 10:58:22;;;;;;;0.28;0.28;;;;;;;;;;5036088;27;92972;-76
2022/06/12 11:00:51;;;;;;;0.30;0.30;;;;;;;;;;5036720;27;93296;-75
2022/06/12 11:03:24;;;;;;;0.10;0.10;;;;;;;;;;5036946;27;92792;-76
2022/06/12 11:05:58;;;;;;;0.10;0.10;;;;;;;;;;5036149;27;93594;-78
2022/06/12 11:08:48;;;;;;;0.10;0.10;;;;;;;;;;5037063;27;92190;-76
2022/06/12 11:11:14;;;;;;;0.10;0.10;;;;;;;;;;5035747;27;93362;-74
2022/06/12 11:13:43;;;;;;;0.10;0.10;;;;;;;;;;5036996;27;93312;-74
2022/06/12 11:16:24;;;;;;;0.10;0.10;;;;;;;;;;5039859;27;92406;-76
2022/06/12 11:18:56;;;;;;;0.10;0.10;;;;;;;;;;5036492;27;92553;-75
2022/06/12 11:21:32;;;;;;;0.40;0.25;;;;;;;;;;5034715;27;94776;-76
2022/06/12 11:24:08;;;;;;;0.10;0.10;;;;;;;;;;5036540;27;95204;-76
2022/06/12 11:26:37;;;;;;;0.10;0.10;;;;;;;;;;5036054;27;93586;-76
2022/06/12 11:29:26;;;;;;;0.20;0.20;;;;;;;;;;5036594;27;92364;-76
2022/06/12 11:32:11;;;;;;;0.10;0.10;;;;;;;;;;5036938;27;93676;-75
2022/06/12 11:34:37;;;;;;;0.10;0.10;;;;;;;;;;5036499;27;92979;-76
2022/06/12 11:37:22;;;;;;;0.10;0.10;;;;;;;;;;5035867;27;92462;-76
2022/06/12 11:39:49;;;;;;;0.10;0.10;;;;;;;;;;5039961;27;93429;-76
2022/06/12 11:42:23;;;;;;;0.10;0.10;;;;;;;;;;5039383;27;92333;-77
2022/06/12 11:45:23;;;;;;;0.10;0.10;;;;;;;;;;5039628;27;93480;-75
2022/06/12 11:47:50;;;;;;;0.10;0.10;;;;;;;;;;4982832;27;95451;-75
2022/06/12 11:50:19;;;;;;;0.10;0.10;;;;;;;;;;5039807;27;92266;-73
2022/06/12 11:52:49;;;;;;;0.10;0.10;;;;;;;;;;5041859;27;93347;-73
2022/06/12 11:55:37;;;;;;;0.10;0.10;;;;;;;;;;5044014;27;92596;-74
2022/06/12 11:58:14;;;;;;;0.10;0.10;;;;;;;;;;5038575;27;92445;-74
2022/06/12 12:00:47;;;;;;;0.10;0.10;;;;;;;;;;5039439;27;93309;-73
2022/06/12 12:03:27;;;;;;;0.10;0.10;;;;;;;;;;5042709;27;93511;-73
2022/06/12 12:05:56;;;;;;;0.10;0.10;;;;;;;;;;5040384;27;93600;-72
2022/06/12 12:08:25;;;;;;;0.10;0.10;;;;;;;;;;5039026;27;93365;-74
2022/06/12 12:11:09;;;;;;;0.10;0.10;;;;;;;;;;5041644;27;93207;-74
2022/06/12 12:13:42;;;;;;;0.10;0.10;;;;;;;;;;5038045;27;94575;-73
2022/06/12 12:16:31;;;;;;;0.20;0.20;;;;;;;;;;5039348;27;93597;-74
2022/06/12 12:19:02;;;;;;;0.10;0.10;;;;;;;;;;5025915;27;92435;-74
2022/06/12 12:21:31;;;;;;;0.10;0.10;;;;;;;;;;5042374;27;93380;-74
2022/06/12 12:23:59;;;;;;;0.10;0.10;;;;;;;;;;5039360;27;93839;-72
2022/06/12 12:26:31;;;;;;;0.10;0.10;;;;;;;;;;5042468;27;92196;-73
2022/06/12 12:29:00;;;;;;;0.10;0.10;;;;;;;;;;5039719;28;94444;-72
2022/06/12 12:31:27;;;;;;;0.10;0.10;;;;;;;;;;5040139;28;91581;-72
2022/06/12 12:33:55;;;;;;;0.10;0.10;;;;;;;;;;5039936;28;92493;-72
2022/06/12 12:42:18;;;;;;;0.47;0.47;;;;;;;;;;5039735;28;95701;-74
2022/06/12 12:44:46;;;;;;;0.43;0.43;;;;;;;;;;5039519;28;93513;-73
2022/06/12 12:47:39;;;;;;;0.10;0.10;;;;;;;;;;5039919;28;92298;-72
2022/06/12 12:50:07;;;;;;;0.20;0.20;;;;;;;;;;5037234;28;93336;-73
2022/06/12 12:52:41;;;;;;;2.08;1.17;;;;;;;;;;5039555;27;92436;-73
2022/06/12 12:55:18;;;;;;;0.10;0.10;;;;;;;;;;5039585;28;92785;-73
2022/06/12 12:57:45;;;;;;;0.10;0.10;;;;;;;;;;5040227;28;92429;-71
2022/06/12 13:00:18;;;;;;;0.10;0.10;;;;;;;;;;5022004;28;92465;-73
2022/06/12 13:02:56;;;;;;;0.10;0.10;;;;;;;;;;5038752;28;93277;-72
2022/06/12 13:05:33;;;;;;;0.10;0.10;;;;;;;;;;5037317;28;95548;-71
2022/06/12 13:08:08;;;;;;;0.10;0.10;;;;;;;;;;5039446;28;92364;-72
2022/06/12 13:10:38;;;;;;;0.10;0.10;;;;;;;;;;5042288;28;93399;-74
2022/06/12 13:13:04;;;;;;;0.10;0.10;;;;;;;;;;5020810;28;93186;-71
2022/06/12 13:15:53;;;;;;;0.10;0.10;;;;;;;;;;5039161;28;93774;-72
2022/06/12 13:18:26;;;;;;;0.20;0.15;;;;;;;;;;5039028;28;93842;-72
2022/06/12 13:20:55;;;;;;;0.00;0.00;;;;;;;;;;5039293;28;92251;-73
2022/06/12 13:23:51;;;;;;;0.57;0.57;;;;;;;;;;5039503;28;93106;-72
2022/06/12 13:26:22;;;;;;;0.10;0.10;;;;;;;;;;4952001;28;92830;-73
2022/06/12 13:28:53;;;;;;;0.10;0.10;;;;;;;;;;5039129;28;92281;-74
2022/06/12 13:31:20;;;;;;;0.10;0.10;;;;;;;;;;5019905;28;94736;-72
2022/06/12 13:33:51;;;;;;;0.10;0.10;;;;;;;;;;5041700;28;93501;-75
2022/06/12 13:36:21;;;;;;;0.17;0.17;;;;;;;;;;5038912;28;93477;-74
2022/06/12 13:38:47;;;;;;;0.10;0.10;;;;;;;;;;5038481;28;93189;-74
2022/06/12 13:41:20;;;;;;;0.10;0.10;;;;;;;;;;5039044;28;92417;-75
2022/06/12 13:43:46;;;;;;;0.10;0.10;;;;;;;;;;5038787;28;93384;-75
2022/06/12 13:46:19;;;;;;;0.10;0.10;;;;;;;;;;5038712;28;93863;-74
2022/06/12 13:48:46;;;;;;;0.10;0.10;;;;;;;;;;5039195;28;91556;-74
2022/06/12 13:51:23;;;;;;;0.10;0.10;;;;;;;;;;5038798;28;92214;-74
2022/06/12 13:53:55;;;;;;;0.10;0.10;;;;;;;;;;5038334;28;93111;-74
2022/06/12 13:56:21;;;;;;;0.10;0.10;;;;;;;;;;5040229;28;94750;-74
2022/06/12 13:58:55;;;;;;;0.10;0.10;;;;;;;;;;5038153;28;93507;-74
2022/06/12 14:01:23;;;;;;;0.10;0.10;;;;;;;;;;5038374;28;92269;-73
2022/06/12 14:03:54;;;;;;;0.10;0.10;;;;;;;;;;5037947;27;93192;-74
2022/06/12 14:06:25;;;;;;;0.10;0.10;;;;;;;;;;5038169;28;93964;-72
2022/06/12 14:08:59;;;;;;;0.63;0.20;;;;;;;;;;5038565;28;92237;-72
2022/06/12 14:11:35;;;;;;;0.20;0.20;;;;;;;;;;5037948;28;92916;-72
2022/06/12 14:14:01;;;;;;;0.10;0.10;;;;;;;;;;5020303;28;94681;-73
2022/06/12 14:16:33;;;;;;;0.10;0.10;;;;;;;;;;5038360;28;92102;-74
2022/06/12 14:19:07;;;;;;;0.10;0.10;;;;;;;;;;5041163;28;93103;-74
2022/06/12 14:21:38;;;;;;;0.10;0.10;;;;;;;;;;5037077;28;94734;-73
2022/06/12 14:24:13;;;;;;;0.10;0.10;;;;;;;;;;5037823;28;96149;-73
2022/06/12 14:26:42;;;;;;;0.10;0.10;;;;;;;;;;5037779;28;93814;-74
2022/06/12 14:29:27;;;;;;;0.10;0.10;;;;;;;;;;5038201;28;92372;-73
2022/06/12 14:32:04;;;;;;;0.10;0.10;;;;;;;;;;5038014;28;93309;-71
2022/06/12 14:34:40;;;;;;;0.20;0.20;;;;;;;;;;5037436;28;93297;-73
2022/06/12 14:37:45;;;;;;;0.30;0.30;;;;;;;;;;5037897;28;92490;-73
2022/06/12 14:40:18;;;;;;;0.10;0.10;;;;;;;;;;4937496;28;93485;-73
2022/06/12 14:42:45;;;;;;;0.10;0.10;;;;;;;;;;4939768;28;93253;-73
2022/06/12 14:45:12;;;;;;;0.10;0.10;;;;;;;;;;4989279;28;93820;-73
2022/06/12 14:47:39;;;;;;;0.10;0.10;;;;;;;;;;5036011;28;95613;-73
2022/06/12 14:50:11;;;;;;;0.10;0.10;;;;;;;;;;5037746;28;92193;-73
2022/06/12 14:52:38;;;;;;;0.10;0.10;;;;;;;;;;5037917;28;92722;-73
2022/06/12 14:55:05;;;;;;;0.10;0.10;;;;;;;;;;5037690;28;92954;-73
2022/06/12 14:57:31;;;;;;;0.10;0.10;;;;;;;;;;5037416;28;93331;-73
2022/06/12 14:59:59;;;;;;;0.00;0.00;;;;;;;;;;5037513;28;92436;-73
2022/06/12 15:02:27;;;;;;;0.10;0.10;;;;;;;;;;5037404;28;93486;-73
2022/06/12 15:04:54;;;;;;;0.10;0.10;;;;;;;;;;5023345;28;91705;-73
2022/06/12 15:07:23;;;;;;;0.10;0.10;;;;;;;;;;5037550;28;93501;-74
2022/06/12 15:09:52;;;;;;;0.10;0.10;;;;;;;;;;5037082;28;92337;-72
2022/06/12 15:12:20;;;;;;;0.10;0.10;;;;;;;;;;5035886;28;94516;-73
2022/06/12 15:14:47;;;;;;;0.10;0.10;;;;;;;;;;5036234;27;93215;-73
2022/06/12 15:17:15;;;;;;;0.10;0.10;;;;;;;;;;5036895;28;92357;-73
2022/06/12 15:19:46;;;;;;;0.10;0.10;;;;;;;;;;5037374;28;93309;-73
2022/06/12 15:22:18;;;;;;;0.10;0.10;;;;;;;;;;5036937;28;93431;-73
2022/06/12 15:24:44;;;;;;;0.10;0.10;;;;;;;;;;5040305;28;92323;-74
2022/06/12 15:29:56;;;;;;;0.10;0.10;;;;;;;;;;5037324;28;91532;-73